sensor_id;sensor_type;location;lat;lon;timestamp;pressure;altitude;pressure_sealevel;temperature;humidity
69717;BME280;67420;46.144;19.666;2023-07-28T00:09:04;99922.09;;;24.96;51.07
69717;BME280;67420;46.144;19.666;2023-07-28T00:19:06;99935.94;;;25.01;51.01
69717;BME280;67420;46.144;19.666;2023-07-28T00:29:08;99927.00;;;25.01;50.79
69717;BME280;67420;46.144;19.666;2023-07-28T00:39:11;99921.94;;;24.98;51.17
69717;BME280;67420;46.144;19.666;2023-07-28T00:49:19;99920.06;;;24.98;50.95
69717;BME280;67420;46.144;19.666;2023-07-28T00:59:29;99937.44;;;24.96;50.87
69717;BME280;67420;46.144;19.666;2023-07-28T01:09:56;99928.31;;;24.97;50.73
69717;BME280;67420;46.144;19.666;2023-07-28T01:20:12;99933.72;;;24.97;50.99
69717;BME280;67420;46.144;19.666;2023-07-28T01:30:19;99926.81;;;24.94;50.72
69717;BME280;67420;46.144;19.666;2023-07-28T01:40:22;99911.13;;;24.90;51.15
69717;BME280;67420;46.144;19.666;2023-07-28T01:50:24;99911.28;;;24.88;51.00
69717;BME280;67420;46.144;19.666;2023-07-28T02:00:27;99904.34;;;24.86;51.20
69717;BME280;67420;46.144;19.666;2023-07-28T02:10:30;99894.25;;;24.88;51.25
69717;BME280;67420;46.144;19.666;2023-07-28T02:20:31;99910.44;;;24.88;51.12
69717;BME280;67420;46.144;19.666;2023-07-28T02:30:35;99890.88;;;24.86;51.08
69717;BME280;67420;46.144;19.666;2023-07-28T02:40:37;99898.13;;;24.85;50.93
69717;BME280;67420;46.144;19.666;2023-07-28T02:50:45;99894.06;;;24.81;50.90
69717;BME280;67420;46.144;19.666;2023-07-28T03:00:47;99906.53;;;24.82;50.98
69717;BME280;67420;46.144;19.666;2023-07-28T03:10:49;99898.75;;;24.79;51.06
69717;BME280;67420;46.144;19.666;2023-07-28T03:20:51;99918.69;;;24.86;50.70
69717;BME280;67420;46.144;19.666;2023-07-28T03:30:54;99913.09;;;24.80;50.96
69717;BME280;67420;46.144;19.666;2023-07-28T03:40:56;99906.00;;;24.79;51.16
69717;BME280;67420;46.144;19.666;2023-07-28T03:50:58;99930.09;;;24.80;51.18
69717;BME280;67420;46.144;19.666;2023-07-28T04:01:00;99922.03;;;24.80;50.88
69717;BME280;67420;46.144;19.666;2023-07-28T04:11:02;99931.78;;;24.81;50.88
69717;BME280;67420;46.144;19.666;2023-07-28T04:21:04;99933.28;;;24.76;51.18
69717;BME280;67420;46.144;19.666;2023-07-28T04:31:07;99916.78;;;24.79;50.77
69717;BME280;67420;46.144;19.666;2023-07-28T04:41:09;99926.41;;;24.81;50.95
69717;BME280;67420;46.144;19.666;2023-07-28T04:51:11;99915.78;;;24.80;51.06
69717;BME280;67420;46.144;19.666;2023-07-28T05:01:13;99918.16;;;24.83;51.26
69717;BME280;67420;46.144;19.666;2023-07-28T05:11:15;99917.28;;;24.74;51.21
69717;BME280;67420;46.144;19.666;2023-07-28T05:21:16;99920.34;;;24.79;51.27
69717;BME280;67420;46.144;19.666;2023-07-28T05:31:19;99918.81;;;24.77;51.09
69717;BME280;67420;46.144;19.666;2023-07-28T05:41:22;99903.31;;;24.79;50.34
69717;BME280;67420;46.144;19.666;2023-07-28T05:51:25;99927.56;;;24.79;50.53
69717;BME280;67420;46.144;19.666;2023-07-28T06:01:27;99930.44;;;24.77;50.51
69717;BME280;67420;46.144;19.666;2023-07-28T06:11:30;99929.09;;;24.81;50.68
69717;BME280;67420;46.144;19.666;2023-07-28T06:21:31;99921.34;;;24.78;50.47
69717;BME280;67420;46.144;19.666;2023-07-28T06:31:34;99938.03;;;24.82;50.28
69717;BME280;67420;46.144;19.666;2023-07-28T06:41:37;99929.44;;;24.78;50.30
69717;BME280;67420;46.144;19.666;2023-07-28T06:51:40;99927.78;;;24.85;50.03
69717;BME280;67420;46.144;19.666;2023-07-28T07:01:42;99925.75;;;24.87;51.40
69717;BME280;67420;46.144;19.666;2023-07-28T07:11:44;99925.78;;;24.95;51.04
69717;BME280;67420;46.144;19.666;2023-07-28T07:21:46;99938.63;;;25.01;51.22
69717;BME280;67420;46.144;19.666;2023-07-28T07:31:50;99937.75;;;24.93;51.41
69717;BME280;67420;46.144;19.666;2023-07-28T07:41:56;99933.38;;;24.92;51.09
69717;BME280;67420;46.144;19.666;2023-07-28T07:51:59;99928.47;;;24.87;51.43
69717;BME280;67420;46.144;19.666;2023-07-28T08:02:01;99918.53;;;24.88;51.06
69717;BME280;67420;46.144;19.666;2023-07-28T08:12:05;99912.13;;;24.89;50.95
69717;BME280;67420;46.144;19.666;2023-07-28T08:22:07;99918.34;;;24.89;50.19
69717;BME280;67420;46.144;19.666;2023-07-28T08:32:09;99919.84;;;24.84;50.78
69717;BME280;67420;46.144;19.666;2023-07-28T08:42:12;99918.53;;;24.88;50.49
69717;BME280;67420;46.144;19.666;2023-07-28T08:52:17;99893.75;;;24.92;50.79
69717;BME280;67420;46.144;19.666;2023-07-28T09:02:20;99885.66;;;24.92;50.88
69717;BME280;67420;46.144;19.666;2023-07-28T09:14:02;99898.50;;;24.98;51.65
69717;BME280;67420;46.144;19.666;2023-07-28T09:24:13;99877.94;;;24.97;51.79
69717;BME280;67420;46.144;19.666;2023-07-28T09:34:26;99874.72;;;24.94;51.66
69717;BME280;67420;46.144;19.666;2023-07-28T09:44:28;99874.41;;;24.97;51.77
69717;BME280;67420;46.144;19.666;2023-07-28T09:54:34;99866.31;;;24.97;51.70
69717;BME280;67420;46.144;19.666;2023-07-28T10:04:37;99843.06;;;24.96;52.04
69717;BME280;67420;46.144;19.666;2023-07-28T10:14:40;99840.69;;;24.93;51.94
69717;BME280;67420;46.144;19.666;2023-07-28T10:25:01;99845.22;;;24.92;52.29
69717;BME280;67420;46.144;19.666;2023-07-28T10:45:15;99845.06;;;24.94;51.89
69717;BME280;67420;46.144;19.666;2023-07-28T10:55:18;99832.06;;;24.89;51.79
69717;BME280;67420;46.144;19.666;2023-07-28T11:05:23;99830.56;;;24.95;51.79
69717;BME280;67420;46.144;19.666;2023-07-28T11:15:29;99815.25;;;24.95;51.99
69717;BME280;67420;46.144;19.666;2023-07-28T11:25:33;99798.38;;;24.93;52.24
69717;BME280;67420;46.144;19.666;2023-07-28T11:35:35;99794.00;;;24.92;51.94
69717;BME280;67420;46.144;19.666;2023-07-28T11:45:38;99800.06;;;24.94;51.89
69717;BME280;67420;46.144;19.666;2023-07-28T11:55:40;99793.00;;;24.93;51.90
69717;BME280;67420;46.144;19.666;2023-07-28T12:06:04;99768.72;;;24.93;52.02
69717;BME280;67420;46.144;19.666;2023-07-28T12:16:31;99769.75;;;24.92;52.19
69717;BME280;67420;46.144;19.666;2023-07-28T12:26:36;99755.25;;;24.93;52.32
69717;BME280;67420;46.144;19.666;2023-07-28T12:36:41;99748.50;;;24.89;52.37
69717;BME280;67420;46.144;19.666;2023-07-28T12:46:47;99725.25;;;24.88;52.13
69717;BME280;67420;46.144;19.666;2023-07-28T12:56:50;99723.72;;;24.94;52.36
69717;BME280;67420;46.144;19.666;2023-07-28T13:07:12;99729.97;;;24.94;52.19
69717;BME280;67420;46.144;19.666;2023-07-28T13:17:16;99727.59;;;24.91;52.11
69717;BME280;67420;46.144;19.666;2023-07-28T13:27:19;99727.28;;;24.94;52.20
69717;BME280;67420;46.144;19.666;2023-07-28T13:37:22;99711.09;;;24.94;52.30
69717;BME280;67420;46.144;19.666;2023-07-28T13:47:24;99714.81;;;24.93;52.15
69717;BME280;67420;46.144;19.666;2023-07-28T13:57:26;99717.50;;;24.93;52.66
69717;BME280;67420;46.144;19.666;2023-07-28T14:07:28;99710.41;;;24.92;52.32
69717;BME280;67420;46.144;19.666;2023-07-28T14:17:30;99700.81;;;24.90;52.36
69717;BME280;67420;46.144;19.666;2023-07-28T14:27:32;99698.47;;;24.95;52.49
69717;BME280;67420;46.144;19.666;2023-07-28T14:37:34;99684.63;;;24.90;52.53
69717;BME280;67420;46.144;19.666;2023-07-28T14:47:37;99683.78;;;24.89;52.85
69717;BME280;67420;46.144;19.666;2023-07-28T14:57:39;99684.47;;;24.91;52.58
69717;BME280;67420;46.144;19.666;2023-07-28T15:07:41;99689.34;;;24.96;52.73
69717;BME280;67420;46.144;19.666;2023-07-28T15:17:43;99684.97;;;24.95;52.91
69717;BME280;67420;46.144;19.666;2023-07-28T15:27:45;99675.88;;;24.96;52.66
69717;BME280;67420;46.144;19.666;2023-07-28T15:37:47;99665.94;;;24.96;52.69
69717;BME280;67420;46.144;19.666;2023-07-28T15:47:49;99665.94;;;24.96;52.64
69717;BME280;67420;46.144;19.666;2023-07-28T15:57:53;99663.41;;;24.95;52.50
69717;BME280;67420;46.144;19.666;2023-07-28T16:07:55;99646.72;;;24.91;52.73
69717;BME280;67420;46.144;19.666;2023-07-28T16:17:58;99662.22;;;24.97;52.54
69717;BME280;67420;46.144;19.666;2023-07-28T16:28:00;99644.19;;;24.90;52.73
69717;BME280;67420;46.144;19.666;2023-07-28T16:38:02;99661.56;;;24.95;52.51
69717;BME280;67420;46.144;19.666;2023-07-28T16:48:04;99667.97;;;24.94;52.67
69717;BME280;67420;46.144;19.666;2023-07-28T16:58:06;99676.56;;;24.98;52.60
69717;BME280;67420;46.144;19.666;2023-07-28T17:08:08;99677.56;;;24.97;52.44
69717;BME280;67420;46.144;19.666;2023-07-28T17:18:10;99665.44;;;24.93;52.52
69717;BME280;67420;46.144;19.666;2023-07-28T17:28:12;99672.00;;;24.98;52.42
69717;BME280;67420;46.144;19.666;2023-07-28T17:38:15;99661.38;;;24.97;52.59
69717;BME280;67420;46.144;19.666;2023-07-28T17:48:17;99676.72;;;24.96;52.59
69717;BME280;67420;46.144;19.666;2023-07-28T17:58:19;99675.19;;;24.94;52.55
69717;BME280;67420;46.144;19.666;2023-07-28T18:08:22;99691.88;;;24.97;52.66
69717;BME280;67420;46.144;19.666;2023-07-28T18:18:25;99697.44;;;24.96;52.61
69717;BME280;67420;46.144;19.666;2023-07-28T18:28:27;99702.66;;;24.97;52.81
69717;BME280;67420;46.144;19.666;2023-07-28T18:38:30;99732.34;;;24.97;52.81
69717;BME280;67420;46.144;19.666;2023-07-28T18:48:32;99740.41;;;24.97;52.56
69717;BME280;67420;46.144;19.666;2023-07-28T18:58:34;99733.19;;;24.98;52.86
69717;BME280;67420;46.144;19.666;2023-07-28T19:08:36;99741.25;;;24.98;52.71
69717;BME280;67420;46.144;19.666;2023-07-28T19:18:39;99751.38;;;24.96;52.99
69717;BME280;67420;46.144;19.666;2023-07-28T19:28:41;99750.19;;;24.98;52.79
69717;BME280;67420;46.144;19.666;2023-07-28T19:38:43;99750.69;;;24.94;52.74
69717;BME280;67420;46.144;19.666;2023-07-28T19:48:45;99763.84;;;24.97;52.88
69717;BME280;67420;46.144;19.666;2023-07-28T19:58:47;99765.88;;;24.95;52.88
69717;BME280;67420;46.144;19.666;2023-07-28T20:08:49;99778.16;;;24.97;53.06
69717;BME280;67420;46.144;19.666;2023-07-28T20:18:53;99779.00;;;24.98;52.93
69717;BME280;67420;46.144;19.666;2023-07-28T20:28:56;99780.88;;;24.97;52.84
69717;BME280;67420;46.144;19.666;2023-07-28T20:38:58;99784.56;;;24.96;52.96
69717;BME280;67420;46.144;19.666;2023-07-28T20:49:01;99780.03;;;24.97;52.80
69717;BME280;67420;46.144;19.666;2023-07-28T20:59:04;99783.91;;;24.94;52.83
69717;BME280;67420;46.144;19.666;2023-07-28T21:09:06;99784.22;;;24.91;53.06
69717;BME280;67420;46.144;19.666;2023-07-28T21:19:08;99790.97;;;24.95;52.93
69717;BME280;67420;46.144;19.666;2023-07-28T21:29:10;99803.63;;;24.95;53.34
69717;BME280;67420;46.144;19.666;2023-07-28T21:39:13;99801.41;;;24.90;53.07
69717;BME280;67420;46.144;19.666;2023-07-28T21:49:16;99807.47;;;24.92;53.09
69717;BME280;67420;46.144;19.666;2023-07-28T21:59:22;99816.09;;;24.96;53.19
69717;BME280;67420;46.144;19.666;2023-07-28T22:09:23;99805.97;;;24.90;53.25
69717;BME280;67420;46.144;19.666;2023-07-28T22:19:26;99818.09;;;24.94;53.18
69717;BME280;67420;46.144;19.666;2023-07-28T22:29:28;99827.03;;;24.94;53.55
69717;BME280;67420;46.144;19.666;2023-07-28T22:39:30;99826.03;;;24.95;53.25
69717;BME280;67420;46.144;19.666;2023-07-28T22:49:33;99812.72;;;24.94;53.10
69717;BME280;67420;46.144;19.666;2023-07-28T22:59:36;99817.94;;;24.95;53.19
69717;BME280;67420;46.144;19.666;2023-07-28T23:09:42;99803.94;;;24.92;53.36
69717;BME280;67420;46.144;19.666;2023-07-28T23:19:45;99806.63;;;24.92;53.08
69717;BME280;67420;46.144;19.666;2023-07-28T23:29:47;99794.50;;;24.88;53.58
69717;BME280;67420;46.144;19.666;2023-07-28T23:39:49;99771.06;;;24.88;53.36
69717;BME280;67420;46.144;19.666;2023-07-28T23:49:52;99779.84;;;24.90;53.16
69717;BME280;67420;46.144;19.666;2023-07-28T23:59:54;99782.38;;;24.92;53.35
